createdAt,value
2019-01-16T00:00:26.107Z,97516.52
2019-01-16T00:02:55.449Z,97513.96
2019-01-16T00:05:23.752Z,97515.20
2019-01-16T00:07:51.306Z,97516.13
2019-01-16T00:10:35.477Z,97507.13
2019-01-16T00:13:04.744Z,97512.80
2019-01-16T00:15:47.062Z,97511.94
2019-01-16T00:18:20.190Z,97514.91
2019-01-16T00:21:05.328Z,97509.00
2019-01-16T00:26:25.110Z,97513.49
2019-01-16T00:28:54.286Z,97507.77
2019-01-16T00:31:29.205Z,97505.36
2019-01-16T00:33:57.607Z,97509.32
2019-01-16T00:36:26.963Z,97505.47
2019-01-16T00:39:09.705Z,97502.91
2019-01-16T00:41:47.045Z,97495.44
2019-01-16T00:44:16.959Z,97483.64
2019-01-16T00:49:37.652Z,97498.72
2019-01-16T00:52:10.547Z,97502.06
2019-01-16T00:54:43.433Z,97502.74
2019-01-16T00:57:26.606Z,97502.92
2019-01-16T01:00:15.655Z,97494.07
2019-01-16T01:02:43.575Z,97491.12
2019-01-16T01:05:12.884Z,97491.56
2019-01-16T01:07:43.864Z,97489.55
2019-01-16T01:10:16.806Z,97490.91
2019-01-16T01:13:03.948Z,97499.53
2019-01-16T01:15:37.231Z,97492.67
2019-01-16T01:18:05.451Z,97490.69
2019-01-16T01:20:34.864Z,97486.46
2019-01-16T01:23:02.258Z,97487.80
2019-01-16T01:25:45.456Z,97486.41
2019-01-16T01:28:22.799Z,97490.27
2019-01-16T01:30:51.732Z,97482.02
2019-01-16T01:33:31.890Z,97487.46
2019-01-16T01:36:04.789Z,97483.93
2019-01-16T01:38:34.131Z,97482.07
2019-01-16T01:41:07.090Z,97479.48
2019-01-16T01:43:36.976Z,97488.51
2019-01-16T01:46:07.894Z,97489.80
2019-01-16T01:48:40.394Z,97488.14
2019-01-16T01:51:11.902Z,97489.53
2019-01-16T01:53:40.838Z,97485.67
2019-01-16T01:59:12.537Z,97487.25
2019-01-16T02:01:41.457Z,97491.14
2019-01-16T02:04:24.683Z,97496.23
2019-01-16T02:06:52.446Z,97490.78
2019-01-16T02:09:20.363Z,97487.23
2019-01-16T02:11:53.706Z,97488.34
2019-01-16T02:14:22.543Z,97483.80
2019-01-16T02:16:49.968Z,97473.97
2019-01-16T02:19:17.762Z,97474.44
2019-01-16T02:21:50.888Z,97473.44
2019-01-16T02:24:22.661Z,97472.91
2019-01-16T02:26:52.482Z,97466.50
2019-01-16T02:29:23.226Z,97475.50
2019-01-16T02:31:51.131Z,97467.19
2019-01-16T02:37:15.432Z,97458.62
2019-01-16T02:39:48.866Z,97459.77
2019-01-16T02:42:31.247Z,97458.30
2019-01-16T02:45:02.038Z,97449.88
2019-01-16T02:47:29.430Z,97446.58
2019-01-16T02:50:00.244Z,97448.01
2019-01-16T02:52:43.945Z,97452.88
2019-01-16T02:55:13.086Z,97449.34
2019-01-16T02:57:42.294Z,97448.01
2019-01-16T03:00:10.045Z,97433.30
2019-01-16T03:02:42.107Z,97442.27
2019-01-16T03:05:12.024Z,97438.30
2019-01-16T03:07:40.798Z,97427.15
2019-01-16T03:10:13.690Z,97429.73
2019-01-16T03:12:41.898Z,97424.59
2019-01-16T03:15:12.087Z,97422.15
2019-01-16T03:17:41.888Z,97422.00
2019-01-16T03:20:14.983Z,97427.07
2019-01-16T03:22:52.326Z,97423.06
2019-01-16T03:28:21.529Z,97419.73
2019-01-16T03:30:53.734Z,97412.86
2019-01-16T03:33:26.608Z,97414.76
2019-01-16T03:35:59.672Z,97417.45
2019-01-16T03:38:27.898Z,97411.50
2019-01-16T03:41:00.247Z,97406.76
2019-01-16T03:43:28.140Z,97404.70
2019-01-16T03:46:16.478Z,97393.48
2019-01-16T03:48:49.733Z,97403.57
2019-01-16T03:51:20.750Z,97396.39
2019-01-16T03:53:48.947Z,97398.12
2019-01-16T03:56:16.348Z,97400.25
2019-01-16T03:58:49.210Z,97398.48
2019-01-16T04:01:22.410Z,97392.38
2019-01-16T04:04:03.624Z,97395.34
2019-01-16T04:06:31.049Z,97390.17
2019-01-16T04:08:58.452Z,97388.83
2019-01-16T04:11:26.333Z,97388.88
2019-01-16T04:13:53.792Z,97387.63
2019-01-16T04:19:22.103Z,97377.66
2019-01-16T04:22:07.403Z,97371.50
2019-01-16T04:24:35.301Z,97378.60
2019-01-16T04:27:03.663Z,97382.79
2019-01-16T04:29:49.752Z,97376.57
2019-01-16T04:32:33.042Z,97377.08
2019-01-16T04:35:01.911Z,97371.73
2019-01-16T04:37:29.315Z,97367.80
2019-01-16T04:40:01.263Z,97373.31
2019-01-16T04:42:31.190Z,97372.09
2019-01-16T04:45:03.476Z,97368.23
2019-01-16T04:47:36.987Z,97369.97
2019-01-16T04:50:05.359Z,97379.45
2019-01-16T04:52:46.532Z,97368.69
2019-01-16T04:55:29.758Z,97374.38
2019-01-16T04:57:59.659Z,97375.73
2019-01-16T05:00:29.430Z,97374.16
2019-01-16T05:03:03.187Z,97362.27
2019-01-16T05:05:47.333Z,97371.59
2019-01-16T05:08:19.302Z,97368.62
2019-01-16T05:10:49.312Z,97376.78
2019-01-16T05:13:31.599Z,97374.98
2019-01-16T05:16:10.764Z,97379.78
2019-01-16T05:21:34.888Z,97379.42
2019-01-16T05:24:07.987Z,97369.02
2019-01-16T05:26:35.386Z,97367.06
2019-01-16T05:29:19.649Z,97357.50
2019-01-16T05:31:47.926Z,97352.95
2019-01-16T05:34:26.244Z,97348.10
2019-01-16T05:36:53.688Z,97338.97
2019-01-16T05:39:21.555Z,97335.42
2019-01-16T05:41:51.602Z,97331.91
2019-01-16T05:47:27.044Z,97332.42
2019-01-16T05:49:54.484Z,97325.98
2019-01-16T05:52:35.770Z,97326.59
2019-01-16T05:55:07.595Z,97320.15
2019-01-16T05:57:48.863Z,97320.10
2019-01-16T06:00:22.373Z,97327.88
2019-01-16T06:02:59.932Z,97334.31
2019-01-16T06:05:29.762Z,97326.88
2019-01-16T06:07:59.550Z,97328.23
2019-01-16T06:10:30.483Z,97337.34
2019-01-16T06:12:59.884Z,97333.56
2019-01-16T06:15:28.819Z,97331.61
2019-01-16T06:18:11.164Z,97337.48
2019-01-16T06:20:46.038Z,97326.02
2019-01-16T06:23:19.001Z,97323.38
2019-01-16T06:25:47.343Z,97318.42
2019-01-16T06:28:20.758Z,97311.31
2019-01-16T06:30:53.152Z,97319.44
2019-01-16T06:33:26.199Z,97323.08
2019-01-16T06:35:53.979Z,97320.55
2019-01-16T06:41:22.974Z,97315.16
2019-01-16T06:43:52.187Z,97311.25
2019-01-16T06:46:27.045Z,97315.98
2019-01-16T06:52:05.752Z,97308.89
2019-01-16T06:54:38.680Z,97316.36
2019-01-16T06:57:16.210Z,97319.66
2019-01-16T06:59:43.717Z,97318.42
2019-01-16T07:02:16.768Z,97316.78
2019-01-16T07:04:50.479Z,97306.58
2019-01-16T07:07:21.250Z,97316.34
2019-01-16T07:10:05.294Z,97314.52
2019-01-16T07:12:47.575Z,97301.18
2019-01-16T07:15:31.839Z,97301.58
2019-01-16T07:18:04.832Z,97304.93
2019-01-16T07:20:33.663Z,97309.62
2019-01-16T07:23:02.739Z,97300.42
2019-01-16T07:25:36.875Z,97304.20
2019-01-16T07:28:04.293Z,97299.06
2019-01-16T07:30:37.097Z,97293.91
2019-01-16T07:33:08.077Z,97294.66
2019-01-16T07:35:41.250Z,97291.19
2019-01-16T07:38:24.347Z,97284.73
2019-01-16T07:40:56.296Z,97302.95
2019-01-16T07:43:24.552Z,97293.14
2019-01-16T07:45:55.586Z,97296.52
2019-01-16T07:48:44.415Z,97299.39
2019-01-16T07:51:14.856Z,97294.00
2019-01-16T07:53:45.824Z,97290.16
2019-01-16T07:56:15.651Z,97289.61
2019-01-16T07:58:43.903Z,97292.35
2019-01-16T08:01:13.768Z,97295.00
2019-01-16T08:03:47.667Z,97292.71
2019-01-16T08:06:16.143Z,97293.33
2019-01-16T08:08:45.659Z,97297.23
2019-01-16T08:11:14.129Z,97303.02
2019-01-16T08:13:44.493Z,97293.36
2019-01-16T08:16:17.541Z,97297.59
2019-01-16T08:18:48.782Z,97301.55
2019-01-16T08:21:34.080Z,97304.14
2019-01-16T08:24:08.068Z,97303.66
2019-01-16T08:26:39.571Z,97303.52
2019-01-16T08:29:24.992Z,97292.53
2019-01-16T08:31:53.349Z,97288.53
2019-01-16T08:34:26.353Z,97292.73
2019-01-16T08:36:59.417Z,97284.27
2019-01-16T08:39:32.471Z,97285.75
2019-01-16T08:42:09.842Z,97279.92
2019-01-16T08:44:41.861Z,97276.43
2019-01-16T08:47:14.960Z,97276.05
2019-01-16T08:49:53.200Z,97273.99
2019-01-16T08:52:27.216Z,97276.95
2019-01-16T08:57:54.511Z,97266.63
2019-01-16T09:00:24.617Z,97270.34
2019-01-16T09:02:57.915Z,97265.33
2019-01-16T09:08:24.551Z,97251.30
2019-01-16T09:10:53.946Z,97253.77
2019-01-16T09:13:27.140Z,97260.97
2019-01-16T09:15:58.506Z,97259.59
2019-01-16T09:18:26.745Z,97258.58
2019-01-16T09:20:57.562Z,97258.59
2019-01-16T09:23:27.050Z,97264.52
2019-01-16T09:25:59.789Z,97257.21
2019-01-16T09:28:27.266Z,97260.75
2019-01-16T09:31:11.037Z,97265.83
2019-01-16T09:33:40.654Z,97255.23
2019-01-16T09:39:06.091Z,97245.84
2019-01-16T09:41:48.434Z,97245.95
2019-01-16T09:44:18.815Z,97245.58
2019-01-16T09:47:00.137Z,97240.52
2019-01-16T09:49:43.471Z,97239.92
2019-01-16T09:52:17.941Z,97242.37
2019-01-16T09:54:50.915Z,97239.47
2019-01-16T09:57:33.806Z,97232.72
2019-01-16T10:00:17.827Z,97222.72
2019-01-16T10:02:45.268Z,97225.92
2019-01-16T10:05:17.573Z,97213.80
2019-01-16T10:07:49.496Z,97221.02
2019-01-16T10:10:20.363Z,97220.09
2019-01-16T10:12:47.803Z,97214.34
2019-01-16T10:15:21.131Z,97212.30
2019-01-16T10:17:48.540Z,97200.61
2019-01-16T10:20:22.161Z,97202.65
2019-01-16T10:22:50.176Z,97193.05
2019-01-16T10:25:17.585Z,97195.50
2019-01-16T10:28:00.804Z,97192.42
2019-01-16T10:30:33.772Z,97188.63
2019-01-16T10:33:07.093Z,97182.30
2019-01-16T10:35:34.072Z,97181.87
2019-01-16T10:38:01.844Z,97175.80
2019-01-16T10:40:33.300Z,97170.94
2019-01-16T10:43:12.969Z,97166.81
2019-01-16T10:45:52.089Z,97177.41
2019-01-16T10:48:19.730Z,97171.50
2019-01-16T10:51:03.259Z,97161.91
2019-01-16T10:53:29.238Z,97162.73
2019-01-16T10:56:12.033Z,97158.44
2019-01-16T10:58:50.756Z,97146.34
2019-01-16T11:01:32.738Z,97145.50
2019-01-16T11:04:20.853Z,97132.33
2019-01-16T11:06:52.464Z,97128.08
2019-01-16T11:09:34.332Z,97121.34
2019-01-16T11:12:07.092Z,97118.47
2019-01-16T11:14:37.615Z,97111.73
2019-01-16T11:17:10.477Z,97110.12
2019-01-16T11:19:53.814Z,97099.41
2019-01-16T11:22:25.311Z,97090.47
2019-01-16T11:25:12.022Z,97093.58
2019-01-16T11:27:56.023Z,97090.43
2019-01-16T11:30:37.963Z,97075.05
2019-01-16T11:33:05.960Z,97073.41
2019-01-16T11:35:38.643Z,97068.84
2019-01-16T11:38:22.403Z,97053.97
2019-01-16T11:40:50.889Z,97051.56
2019-01-16T11:43:17.691Z,97044.86
2019-01-16T11:45:46.833Z,97043.72
2019-01-16T11:48:28.733Z,97038.00
2019-01-16T11:51:18.753Z,97031.77
2019-01-16T11:53:56.446Z,97025.78
2019-01-16T11:56:33.320Z,97017.30
2019-01-16T11:59:03.757Z,97010.69
2019-01-16T12:01:50.300Z,97001.00
2019-01-16T12:04:19.711Z,97004.87
2019-01-16T12:06:56.623Z,97001.26
2019-01-16T12:09:27.596Z,96998.69
2019-01-16T12:11:58.347Z,96990.52
2019-01-16T12:14:27.096Z,96991.55
2019-01-16T12:17:12.117Z,96979.94
2019-01-16T12:19:41.653Z,96982.23
2019-01-16T12:22:10.314Z,96978.98
2019-01-16T12:24:38.510Z,96969.52
2019-01-16T12:27:23.806Z,96964.86
2019-01-16T12:29:56.940Z,96968.91
2019-01-16T12:32:26.387Z,96966.80
2019-01-16T12:34:55.706Z,96961.95
2019-01-16T12:37:23.118Z,96953.69
2019-01-16T12:40:06.477Z,96957.86
2019-01-16T12:42:35.123Z,96949.52
2019-01-16T12:48:01.316Z,96941.08
2019-01-16T12:50:48.553Z,96943.09
2019-01-16T12:53:15.625Z,96940.33
2019-01-16T12:55:48.484Z,96941.23
2019-01-16T13:00:57.427Z,96923.95
2019-01-16T13:03:43.269Z,96917.36
2019-01-16T13:06:28.304Z,96926.78
2019-01-16T13:09:14.145Z,96926.14
2019-01-16T13:11:44.120Z,96911.42
2019-01-16T13:14:11.932Z,96918.48
2019-01-16T13:19:49.541Z,96911.09
2019-01-16T13:22:32.304Z,96918.42
2019-01-16T13:25:15.906Z,96921.48
2019-01-16T13:27:44.693Z,96920.13
2019-01-16T13:30:17.944Z,96919.90
2019-01-16T13:32:50.591Z,96922.92
2019-01-16T13:35:23.155Z,96917.11
2019-01-16T13:37:50.973Z,96921.34
2019-01-16T13:40:23.578Z,96916.38
2019-01-16T13:43:05.889Z,96907.08
2019-01-16T13:45:33.301Z,96899.23
2019-01-16T13:48:17.395Z,96892.17
2019-01-16T13:50:44.970Z,96878.28
2019-01-16T13:53:22.310Z,96870.17
2019-01-16T13:55:55.339Z,96861.78
2019-01-16T13:58:24.842Z,96879.15
2019-01-16T14:00:55.677Z,96870.70
2019-01-16T14:03:27.487Z,96881.22
2019-01-16T14:05:56.309Z,96874.20
2019-01-16T14:08:24.228Z,96861.19
2019-01-16T14:10:52.069Z,96867.95
2019-01-16T14:13:21.105Z,96856.41
2019-01-16T14:15:57.974Z,96855.25
2019-01-16T14:18:30.582Z,96847.88
2019-01-16T14:20:59.404Z,96841.67
2019-01-16T14:23:29.815Z,96838.72
2019-01-16T14:26:07.152Z,96834.39
2019-01-16T14:28:40.285Z,96827.47
2019-01-16T14:31:08.155Z,96825.84
2019-01-16T14:33:41.215Z,96821.25
2019-01-16T14:36:11.123Z,96823.97
2019-01-16T14:38:41.132Z,96819.41
2019-01-16T14:41:15.944Z,96809.41
2019-01-16T14:46:54.935Z,96811.56
2019-01-16T14:49:22.888Z,96818.11
2019-01-16T14:51:52.677Z,96814.22
2019-01-16T14:54:33.909Z,96817.61
2019-01-16T14:57:06.792Z,96815.72
2019-01-16T14:59:49.887Z,96819.59
2019-01-16T15:02:39.887Z,96814.28
2019-01-16T15:05:08.282Z,96815.77
2019-01-16T15:07:36.015Z,96819.22
2019-01-16T15:10:03.426Z,96814.25
2019-01-16T15:15:24.945Z,96825.33
2019-01-16T15:18:07.102Z,96822.50
2019-01-16T15:20:36.483Z,96822.55
2019-01-16T15:23:06.328Z,96822.84
2019-01-16T15:25:40.320Z,96824.19
2019-01-16T15:28:12.467Z,96820.98
2019-01-16T15:30:42.161Z,96817.25
2019-01-16T15:33:26.415Z,96812.26
2019-01-16T15:35:59.333Z,96811.41
2019-01-16T15:38:30.562Z,96813.88
2019-01-16T15:40:58.591Z,96813.56
2019-01-16T15:46:20.503Z,96819.56
2019-01-16T15:48:58.621Z,96816.64
2019-01-16T15:51:31.631Z,96810.83
2019-01-16T15:53:59.070Z,96803.78
2019-01-16T15:56:26.965Z,96800.53
2019-01-16T15:59:00.132Z,96803.36
2019-01-16T16:04:22.792Z,96801.98
2019-01-16T16:06:51.188Z,96803.31
2019-01-16T16:09:21.732Z,96807.87
2019-01-16T16:11:52.989Z,96808.70
2019-01-16T16:14:20.452Z,96809.36
2019-01-16T16:16:50.313Z,96806.27
2019-01-16T16:19:23.490Z,96816.92
2019-01-16T16:21:51.947Z,96816.00
2019-01-16T16:24:19.840Z,96811.41
2019-01-16T16:26:53.167Z,96814.68
2019-01-16T16:29:24.971Z,96817.22
2019-01-16T16:31:58.050Z,96811.96
2019-01-16T16:34:31.051Z,96807.06
2019-01-16T16:37:04.050Z,96806.02
2019-01-16T16:39:32.923Z,96811.67
2019-01-16T16:44:56.101Z,96811.94
2019-01-16T16:47:38.410Z,96807.18
2019-01-16T16:50:06.223Z,96807.55
2019-01-16T16:52:54.529Z,96809.14
2019-01-16T16:55:27.823Z,96802.98
2019-01-16T16:58:01.302Z,96807.91
2019-01-16T17:00:30.586Z,96801.53
2019-01-16T17:05:55.122Z,96797.63
2019-01-16T17:11:19.652Z,96796.58
2019-01-16T17:13:52.666Z,96799.14
2019-01-16T17:19:19.800Z,96793.19
2019-01-16T17:21:47.207Z,96793.17
2019-01-16T17:24:33.350Z,96796.92
2019-01-16T17:27:01.433Z,96792.47
2019-01-16T17:29:38.988Z,96795.20
2019-01-16T17:35:01.967Z,96792.85
2019-01-16T17:37:30.309Z,96796.81
2019-01-16T17:40:01.170Z,96804.47
2019-01-16T17:42:44.409Z,96802.67
2019-01-16T17:45:17.350Z,96800.94
2019-01-16T17:47:56.557Z,96796.55
2019-01-16T17:50:29.570Z,96799.58
2019-01-16T17:53:02.636Z,96801.71
2019-01-16T17:55:32.345Z,96803.33
2019-01-16T17:58:12.710Z,96804.87
2019-01-16T18:00:46.671Z,96813.03
2019-01-16T18:06:09.200Z,96815.66
2019-01-16T18:08:38.729Z,96812.47
2019-01-16T18:11:07.531Z,96812.08
2019-01-16T18:13:35.879Z,96809.47
2019-01-16T18:16:20.133Z,96813.52
2019-01-16T18:18:49.971Z,96811.17
2019-01-16T18:21:18.936Z,96811.02
2019-01-16T18:23:52.010Z,96815.53
2019-01-16T18:26:31.291Z,96815.20
2019-01-16T18:28:59.382Z,96813.27
2019-01-16T18:31:28.329Z,96818.67
2019-01-16T18:34:10.637Z,96816.88
2019-01-16T18:36:39.474Z,96824.02
2019-01-16T18:42:17.004Z,96814.66
2019-01-16T18:45:03.251Z,96818.30
2019-01-16T18:47:34.503Z,96820.41
2019-01-16T18:50:04.903Z,96812.41
2019-01-16T18:52:35.850Z,96818.80
2019-01-16T18:55:05.212Z,96821.46
2019-01-16T18:57:38.682Z,96827.86
2019-01-16T19:00:13.045Z,96822.87
2019-01-16T19:02:40.792Z,96823.81
2019-01-16T19:05:08.333Z,96822.87
2019-01-16T19:10:31.566Z,96831.54
2019-01-16T19:13:01.499Z,96834.12
2019-01-16T19:15:30.312Z,96831.70
2019-01-16T19:18:08.824Z,96833.02
2019-01-16T19:20:46.208Z,96833.28
2019-01-16T19:23:15.249Z,96826.96
2019-01-16T19:28:38.720Z,96830.68
2019-01-16T19:31:11.803Z,96831.19
2019-01-16T19:33:41.665Z,96834.19
2019-01-16T19:36:21.911Z,96837.11
2019-01-16T19:38:54.297Z,96833.77
2019-01-16T19:41:40.171Z,96823.29
2019-01-16T19:44:12.785Z,96834.69
2019-01-16T19:46:44.085Z,96833.39
2019-01-16T19:49:14.820Z,96835.47
2019-01-16T19:54:42.081Z,96832.23
2019-01-16T19:57:14.350Z,96830.97
2019-01-16T19:59:48.267Z,96834.95
2019-01-16T20:02:34.565Z,96833.46
2019-01-16T20:05:19.817Z,96842.98
2019-01-16T20:07:47.209Z,96846.06
2019-01-16T20:10:14.776Z,96845.52
2019-01-16T20:12:46.964Z,96849.80
2019-01-16T20:15:24.342Z,96842.78
2019-01-16T20:21:01.292Z,96846.92
2019-01-16T20:23:46.577Z,96851.49
2019-01-16T20:26:16.506Z,96850.69
2019-01-16T20:28:58.807Z,96857.34
2019-01-16T20:31:27.178Z,96855.52
2019-01-16T20:33:58.190Z,96859.58
2019-01-16T20:36:29.031Z,96856.77
2019-01-16T20:39:01.230Z,96847.48
2019-01-16T20:41:31.042Z,96850.74
2019-01-16T20:44:02.938Z,96852.72
2019-01-16T20:46:32.006Z,96858.88
2019-01-16T20:49:10.257Z,96854.08
2019-01-16T20:51:43.246Z,96856.70
2019-01-16T20:54:16.370Z,96856.83
2019-01-16T20:56:43.796Z,96861.84
2019-01-16T21:02:07.070Z,96863.05
2019-01-16T21:04:39.160Z,96875.30
2019-01-16T21:09:58.772Z,96866.76
2019-01-16T21:12:27.997Z,96878.33
2019-01-16T21:14:57.799Z,96874.41
2019-01-16T21:17:35.179Z,96877.52
2019-01-16T21:20:12.655Z,96873.56
2019-01-16T21:22:51.031Z,96865.80
2019-01-16T21:25:18.433Z,96864.82
2019-01-16T21:27:51.426Z,96870.69
2019-01-16T21:30:37.738Z,96864.29
2019-01-16T21:33:10.603Z,96867.75
2019-01-16T21:35:38.055Z,96873.84
2019-01-16T21:38:07.215Z,96869.66
2019-01-16T21:40:50.504Z,96861.26
2019-01-16T21:43:32.789Z,96869.91
2019-01-16T21:46:10.342Z,96868.05
2019-01-16T21:48:40.289Z,96867.23
2019-01-16T21:51:08.223Z,96870.56
2019-01-16T21:53:53.519Z,96864.04
2019-01-16T21:59:16.769Z,96869.92
2019-01-16T22:02:00.009Z,96862.56
2019-01-16T22:04:29.232Z,96873.95
2019-01-16T22:06:57.617Z,96878.06
2019-01-16T22:09:30.700Z,96875.20
2019-01-16T22:12:04.450Z,96882.02
2019-01-16T22:14:34.900Z,96879.00
2019-01-16T22:20:11.349Z,96878.67
2019-01-16T22:22:43.330Z,96887.27
2019-01-16T22:25:16.286Z,96879.35
2019-01-16T22:27:49.147Z,96882.63
2019-01-16T22:30:17.563Z,96882.28
2019-01-16T22:32:46.507Z,96883.59
2019-01-16T22:35:33.676Z,96875.47
2019-01-16T22:38:04.923Z,96888.45
2019-01-16T22:40:34.304Z,96888.45
2019-01-16T22:43:07.359Z,96896.14
2019-01-16T22:45:35.618Z,96893.66
2019-01-16T22:48:07.805Z,96901.00
2019-01-16T22:50:35.683Z,96887.92
2019-01-16T22:53:06.037Z,96883.46
2019-01-16T22:55:48.358Z,96881.81
2019-01-16T22:58:18.004Z,96883.17
2019-01-16T23:00:50.948Z,96882.80
2019-01-16T23:03:33.251Z,96886.86
2019-01-16T23:06:03.098Z,96882.88
2019-01-16T23:08:32.878Z,96889.14
2019-01-16T23:11:02.682Z,96885.97
2019-01-16T23:13:35.747Z,96889.28
2019-01-16T23:16:04.074Z,96880.34
2019-01-16T23:21:28.500Z,96886.23
2019-01-16T23:23:56.255Z,96880.30
2019-01-16T23:26:28.591Z,96887.30
2019-01-16T23:28:56.354Z,96878.95
2019-01-16T23:31:27.921Z,96895.34
2019-01-16T23:34:11.160Z,96892.47
2019-01-16T23:36:44.275Z,96885.16
2019-01-16T23:39:28.573Z,96882.86
2019-01-16T23:42:07.973Z,96887.23
2019-01-16T23:47:41.385Z,96884.77
2019-01-16T23:50:28.459Z,96891.81
2019-01-16T23:53:14.577Z,96887.53
2019-01-16T23:55:57.978Z,96885.03
2019-01-16T23:58:30.929Z,96883.04
